Terminal Aerodrome Forecast
Issued by NWS Goodland, KS

Home | Current Version | Previous Version | Text Only | Print | Product List | Glossary On
Versions: 1 2 3 4 5 6 7 8 9 10 11 12
188
FTUS43 KGLD 041722
TAFGLD
TAF
KGLD 041722Z 0418/0518 30011KT P6SM FEW110
     FM050000 26006KT P6SM SCT200
     FM050500 24007KT P6SM BKN110
     FM050800 27006KT P6SM OVC080
     FM051000 30007KT P6SM VCSH OVC035
     FM051400 31011KT P6SM OVC040=

USA.gov is the U.S. government's official web portal to all federal, state and local government web resources and services.